DQA102 VRMM-VRMG
Flight info
| Callsign | DQA102 |
|---|---|
| Flight time | 1h 4m |
| Altitude | 24000 |
| Route | IGRAM1B IGRAM Z749 VENDU |
| Aircraft | DH8D/M-SDE2E3FGRY/H |
Departure
| Time | 2026-04-22 14:15 |
|---|---|
| Airport | Velana International Airport (VRMM) |
Arrival
| Time | 2026-04-22 15:20 |
|---|---|
| Airport | Gan International Airport (VRMG) |
| Time | Latitude | Longitude | Altitude | Speed | Heading |
|---|---|---|---|---|---|
| 2026-04-22 13:48 | 4.19028 | 73.52796 | 13 ft | 0 kts | 268° |
| 2026-04-22 14:07 | 4.19028 | 73.52795 | 13 ft | 0 kts | 268° |
| 2026-04-22 14:07 | 4.19028 | 73.52796 | 13 ft | 0 kts | 268° |
| 2026-04-22 14:07 | 4.19029 | 73.52805 | 13 ft | 2 kts | 268° |
| 2026-04-22 14:08 | 4.19029 | 73.52820 | 13 ft | 2 kts | 268° |
| 2026-04-22 14:08 | 4.19030 | 73.52830 | 13 ft | 1 kts | 251° |
| 2026-04-22 14:08 | 4.19037 | 73.52842 | 13 ft | 1 kts | 222° |
| 2026-04-22 14:08 | 4.19049 | 73.52848 | 13 ft | 1 kts | 181° |
| 2026-04-22 14:09 | 4.19054 | 73.52850 | 13 ft | 0 kts | 176° |
| 2026-04-22 14:09 | 4.19059 | 73.52846 | 13 ft | 0 kts | 92° |
| 2026-04-22 14:09 | 4.19058 | 73.52843 | 13 ft | 0 kts | 38° |
| 2026-04-22 14:10 | 4.19061 | 73.52845 | 13 ft | 2 kts | 40° |
| 2026-04-22 14:10 | 4.19064 | 73.52848 | 13 ft | 0 kts | 43° |
| 2026-04-22 14:11 | 4.19061 | 73.52859 | 13 ft | 4 kts | 148° |
| 2026-04-22 14:11 | 4.19036 | 73.52896 | 13 ft | 8 kts | 99° |
| 2026-04-22 14:11 | 4.19007 | 73.52962 | 13 ft | 11 kts | 94° |
| 2026-04-22 14:11 | 4.19007 | 73.53054 | 13 ft | 11 kts | 88° |
| 2026-04-22 14:12 | 4.19038 | 73.53099 | 13 ft | 10 kts | 12° |
| 2026-04-22 14:12 | 4.19197 | 73.53110 | 13 ft | 54 kts | 8° |
| 2026-04-22 14:15 | 4.19633 | 73.53102 | 13 ft | 106 kts | 0° |
| 2026-04-22 14:15 | 4.20582 | 73.53104 | 122 ft | 151 kts | 2° |
| 2026-04-22 14:15 | 4.21696 | 73.53160 | 530 ft | 168 kts | 4° |
| 2026-04-22 14:15 | 4.22890 | 73.53198 | 1088 ft | 178 kts | 2° |
| 2026-04-22 14:16 | 4.24133 | 73.53199 | 1706 ft | 181 kts | 0° |
| 2026-04-22 14:16 | 4.25417 | 73.53186 | 2243 ft | 186 kts | 0° |
| 2026-04-22 14:16 | 4.26727 | 73.53173 | 2766 ft | 192 kts | 0° |
| 2026-04-22 14:16 | 4.28135 | 73.53162 | 3094 ft | 208 kts | 1° |
| 2026-04-22 14:17 | 4.29587 | 73.53153 | 3647 ft | 210 kts | 1° |
| 2026-04-22 14:17 | 4.31073 | 73.53145 | 4169 ft | 214 kts | 1° |
| 2026-04-22 14:17 | 4.32575 | 73.53139 | 4723 ft | 216 kts | 1° |
| 2026-04-22 14:17 | 4.34074 | 73.53134 | 5283 ft | 216 kts | 2° |
| 2026-04-22 14:18 | 4.35581 | 73.53130 | 5804 ft | 219 kts | 1° |
| 2026-04-22 14:18 | 4.37117 | 73.53128 | 6327 ft | 220 kts | 2° |
| 2026-04-22 14:18 | 4.38681 | 73.53126 | 6722 ft | 230 kts | 2° |
| 2026-04-22 14:18 | 4.40383 | 73.53018 | 6757 ft | 254 kts | 348° |
| 2026-04-22 14:19 | 4.41916 | 73.52073 | 6891 ft | 271 kts | 311° |
| 2026-04-22 14:19 | 4.42657 | 73.50327 | 7226 ft | 278 kts | 278° |
| 2026-04-22 14:19 | 4.42636 | 73.48398 | 7598 ft | 281 kts | 268° |
| 2026-04-22 14:19 | 4.42535 | 73.46420 | 7962 ft | 283 kts | 268° |
| 2026-04-22 14:20 | 4.41382 | 73.42704 | 8632 ft | 288 kts | 223° |
| 2026-04-22 14:20 | 4.39629 | 73.41779 | 8966 ft | 287 kts | 191° |
| 2026-04-22 14:20 | 4.37643 | 73.41596 | 9318 ft | 288 kts | 181° |
| 2026-04-22 14:21 | 4.33502 | 73.41488 | 9756 ft | 299 kts | 179° |
| 2026-04-22 14:21 | 4.31396 | 73.41460 | 10061 ft | 301 kts | 179° |
| 2026-04-22 14:22 | 4.27165 | 73.41425 | 10606 ft | 305 kts | 179° |
| 2026-04-22 14:22 | 4.24985 | 73.41415 | 10642 ft | 315 kts | 179° |
| 2026-04-22 14:22 | 4.20492 | 73.41405 | 10766 ft | 327 kts | 179° |
| 2026-04-22 14:23 | 4.18200 | 73.41403 | 10901 ft | 328 kts | 179° |
| 2026-04-22 14:23 | 4.15895 | 73.41402 | 11111 ft | 327 kts | 179° |
| 2026-04-22 14:23 | 4.13603 | 73.41402 | 11249 ft | 330 kts | 179° |
| 2026-04-22 14:23 | 4.11289 | 73.41401 | 11573 ft | 329 kts | 179° |
| 2026-04-22 14:24 | 4.08992 | 73.41402 | 11835 ft | 331 kts | 179° |
| 2026-04-22 14:24 | 4.06679 | 73.41403 | 12110 ft | 332 kts | 179° |
| 2026-04-22 14:24 | 4.04332 | 73.41405 | 12400 ft | 333 kts | 179° |
| 2026-04-22 14:24 | 4.02008 | 73.41407 | 12694 ft | 334 kts | 179° |
| 2026-04-22 14:25 | 3.99658 | 73.41409 | 12955 ft | 336 kts | 179° |
| 2026-04-22 14:25 | 3.97317 | 73.41412 | 13225 ft | 338 kts | 179° |
| 2026-04-22 14:25 | 3.94937 | 73.41414 | 13464 ft | 340 kts | 179° |
| 2026-04-22 14:25 | 3.92570 | 73.41415 | 13734 ft | 341 kts | 180° |
| 2026-04-22 14:26 | 3.90149 | 73.41415 | 13912 ft | 346 kts | 180° |
| 2026-04-22 14:26 | 3.87751 | 73.41414 | 14242 ft | 345 kts | 180° |
| 2026-04-22 14:26 | 3.85327 | 73.41414 | 14483 ft | 347 kts | 180° |
| 2026-04-22 14:26 | 3.82898 | 73.41258 | 14684 ft | 351 kts | 191° |
| 2026-04-22 14:27 | 3.80551 | 73.40471 | 14957 ft | 351 kts | 201° |
| 2026-04-22 14:27 | 3.78263 | 73.39592 | 15238 ft | 352 kts | 201° |
| 2026-04-22 14:27 | 3.75950 | 73.38702 | 15469 ft | 354 kts | 201° |
| 2026-04-22 14:27 | 3.73633 | 73.37810 | 15744 ft | 355 kts | 201° |
| 2026-04-22 14:28 | 3.71305 | 73.36917 | 15971 ft | 358 kts | 201° |
| 2026-04-22 14:28 | 3.68953 | 73.36017 | 16235 ft | 359 kts | 201° |
| 2026-04-22 14:28 | 3.66588 | 73.35113 | 16466 ft | 362 kts | 201° |
| 2026-04-22 14:28 | 3.64221 | 73.34210 | 16724 ft | 363 kts | 201° |
| 2026-04-22 14:29 | 3.61841 | 73.33302 | 16973 ft | 365 kts | 201° |
| 2026-04-22 14:29 | 3.59455 | 73.32393 | 17172 ft | 368 kts | 201° |
| 2026-04-22 14:29 | 3.57075 | 73.31486 | 17506 ft | 367 kts | 201° |
| 2026-04-22 14:29 | 3.54651 | 73.30564 | 17726 ft | 368 kts | 201° |
| 2026-04-22 14:30 | 3.52216 | 73.29638 | 17991 ft | 369 kts | 201° |
| 2026-04-22 14:30 | 3.49815 | 73.28725 | 18295 ft | 368 kts | 201° |
| 2026-04-22 14:30 | 3.47421 | 73.27814 | 18507 ft | 370 kts | 201° |
| 2026-04-22 14:30 | 3.45109 | 73.26934 | 18803 ft | 368 kts | 201° |
| 2026-04-22 14:31 | 3.42741 | 73.26034 | 19004 ft | 369 kts | 201° |
| 2026-04-22 14:31 | 3.40297 | 73.25174 | 19223 ft | 370 kts | 195° |
| 2026-04-22 14:31 | 3.37743 | 73.24814 | 19465 ft | 369 kts | 185° |
| 2026-04-22 14:31 | 3.35162 | 73.24611 | 19695 ft | 370 kts | 185° |
| 2026-04-22 14:32 | 3.32591 | 73.24410 | 19899 ft | 370 kts | 185° |
| 2026-04-22 14:32 | 3.30017 | 73.24209 | 19998 ft | 365 kts | 185° |
| 2026-04-22 14:32 | 3.27471 | 73.24010 | 20026 ft | 361 kts | 185° |
| 2026-04-22 14:32 | 3.24964 | 73.23811 | 20032 ft | 357 kts | 185° |
| 2026-04-22 14:33 | 3.22476 | 73.23611 | 19883 ft | 359 kts | 185° |
| 2026-04-22 14:33 | 3.19995 | 73.23409 | 19860 ft | 355 kts | 185° |
| 2026-04-22 14:33 | 3.17511 | 73.23208 | 19856 ft | 353 kts | 185° |
| 2026-04-22 14:33 | 3.15073 | 73.23010 | 19849 ft | 351 kts | 185° |
| 2026-04-22 14:34 | 3.12614 | 73.22808 | 19844 ft | 350 kts | 185° |
| 2026-04-22 14:34 | 3.10186 | 73.22609 | 19839 ft | 349 kts | 185° |
| 2026-04-22 14:34 | 3.07739 | 73.22408 | 19839 ft | 348 kts | 185° |
| 2026-04-22 14:34 | 3.05301 | 73.22208 | 19840 ft | 347 kts | 185° |
| 2026-04-22 14:35 | 3.02908 | 73.22011 | 19841 ft | 347 kts | 185° |
| 2026-04-22 14:35 | 3.00464 | 73.21808 | 19842 ft | 347 kts | 185° |
| 2026-04-22 14:35 | 2.98046 | 73.21607 | 19842 ft | 346 kts | 185° |
| 2026-04-22 14:35 | 2.95613 | 73.21406 | 19842 ft | 346 kts | 185° |
| 2026-04-22 14:36 | 2.93230 | 73.21207 | 19844 ft | 346 kts | 185° |
| 2026-04-22 14:36 | 2.90788 | 73.21004 | 19843 ft | 345 kts | 185° |
| 2026-04-22 14:36 | 2.88396 | 73.20806 | 19845 ft | 345 kts | 185° |
| 2026-04-22 14:36 | 2.85982 | 73.20607 | 19845 ft | 345 kts | 185° |
| 2026-04-22 14:37 | 2.83571 | 73.20410 | 19843 ft | 345 kts | 185° |
| 2026-04-22 14:37 | 2.81173 | 73.20215 | 19843 ft | 345 kts | 185° |
| 2026-04-22 14:37 | 2.78771 | 73.20019 | 19841 ft | 345 kts | 185° |
| 2026-04-22 14:37 | 2.76362 | 73.19821 | 19841 ft | 345 kts | 185° |
| 2026-04-22 14:38 | 2.73949 | 73.19624 | 19841 ft | 345 kts | 185° |
| 2026-04-22 14:38 | 2.71532 | 73.19427 | 19843 ft | 345 kts | 185° |
| 2026-04-22 14:38 | 2.69134 | 73.19231 | 19843 ft | 345 kts | 185° |
| 2026-04-22 14:38 | 2.66738 | 73.19034 | 19843 ft | 345 kts | 185° |
| 2026-04-22 14:39 | 2.64336 | 73.18836 | 19845 ft | 345 kts | 185° |
| 2026-04-22 14:39 | 2.61932 | 73.18639 | 19844 ft | 346 kts | 185° |
| 2026-04-22 14:39 | 2.59499 | 73.18439 | 19842 ft | 345 kts | 185° |
| 2026-04-22 14:40 | 2.54684 | 73.18043 | 19845 ft | 345 kts | 185° |
| 2026-04-22 14:40 | 2.52289 | 73.17846 | 19843 ft | 345 kts | 185° |
| 2026-04-22 14:40 | 2.49886 | 73.17649 | 19845 ft | 344 kts | 185° |
| 2026-04-22 14:40 | 2.47488 | 73.17451 | 19842 ft | 344 kts | 185° |
| 2026-04-22 14:41 | 2.45085 | 73.17255 | 19844 ft | 345 kts | 185° |
| 2026-04-22 14:41 | 2.42685 | 73.17057 | 19843 ft | 345 kts | 185° |
| 2026-04-22 14:41 | 2.40246 | 73.16856 | 19843 ft | 346 kts | 185° |
| 2026-04-22 14:41 | 2.37854 | 73.16660 | 19843 ft | 347 kts | 185° |
| 2026-04-22 14:42 | 2.35410 | 73.16459 | 19843 ft | 347 kts | 185° |
| 2026-04-22 14:42 | 2.33018 | 73.16262 | 19842 ft | 347 kts | 185° |
| 2026-04-22 14:42 | 2.30578 | 73.16062 | 19841 ft | 346 kts | 185° |
| 2026-04-22 14:42 | 2.28194 | 73.15866 | 19842 ft | 346 kts | 185° |
| 2026-04-22 14:43 | 2.25772 | 73.15667 | 19842 ft | 346 kts | 185° |
| 2026-04-22 14:43 | 2.23355 | 73.15469 | 19844 ft | 346 kts | 185° |
| 2026-04-22 14:43 | 2.20937 | 73.15270 | 19844 ft | 346 kts | 185° |
| 2026-04-22 14:43 | 2.18540 | 73.15009 | 19843 ft | 346 kts | 188° |
| 2026-04-22 14:44 | 2.16132 | 73.14683 | 19844 ft | 346 kts | 188° |
| 2026-04-22 14:44 | 2.13743 | 73.14362 | 19842 ft | 346 kts | 188° |
| 2026-04-22 14:44 | 2.11348 | 73.14040 | 19842 ft | 347 kts | 188° |
| 2026-04-22 14:44 | 2.08943 | 73.13721 | 19843 ft | 347 kts | 188° |
| 2026-04-22 14:45 | 2.06516 | 73.13400 | 19841 ft | 347 kts | 188° |
| 2026-04-22 14:45 | 2.04140 | 73.13087 | 19843 ft | 346 kts | 188° |
| 2026-04-22 14:45 | 2.01713 | 73.12769 | 19842 ft | 346 kts | 188° |
| 2026-04-22 14:45 | 1.99313 | 73.12454 | 19845 ft | 346 kts | 188° |
| 2026-04-22 14:46 | 1.96903 | 73.12139 | 19848 ft | 347 kts | 188° |
| 2026-04-22 14:46 | 1.94510 | 73.11826 | 19851 ft | 347 kts | 187° |
| 2026-04-22 14:46 | 1.92116 | 73.11513 | 19858 ft | 347 kts | 187° |
| 2026-04-22 14:46 | 1.89696 | 73.11198 | 19865 ft | 347 kts | 187° |
| 2026-04-22 14:47 | 1.87302 | 73.10886 | 19862 ft | 347 kts | 187° |
| 2026-04-22 14:47 | 1.84867 | 73.10570 | 19864 ft | 347 kts | 187° |
| 2026-04-22 14:47 | 1.82471 | 73.10258 | 19861 ft | 347 kts | 187° |
| 2026-04-22 14:47 | 1.80067 | 73.09945 | 19865 ft | 347 kts | 187° |
| 2026-04-22 14:48 | 1.77637 | 73.09628 | 19866 ft | 347 kts | 188° |
| 2026-04-22 14:48 | 1.75242 | 73.09317 | 19865 ft | 347 kts | 187° |
| 2026-04-22 14:48 | 1.72842 | 73.09004 | 19863 ft | 347 kts | 187° |
| 2026-04-22 14:48 | 1.70437 | 73.08691 | 19863 ft | 347 kts | 188° |
| 2026-04-22 14:49 | 1.68006 | 73.08375 | 19862 ft | 347 kts | 187° |
| 2026-04-22 14:49 | 1.65628 | 73.08066 | 19861 ft | 347 kts | 187° |
| 2026-04-22 14:49 | 1.63207 | 73.07751 | 19863 ft | 346 kts | 187° |
| 2026-04-22 14:49 | 1.60806 | 73.07439 | 19863 ft | 346 kts | 187° |
| 2026-04-22 14:50 | 1.58399 | 73.07126 | 19861 ft | 346 kts | 187° |
| 2026-04-22 14:50 | 1.55991 | 73.06825 | 19857 ft | 345 kts | 187° |
| 2026-04-22 14:50 | 1.53618 | 73.06538 | 19853 ft | 345 kts | 187° |
| 2026-04-22 14:50 | 1.51198 | 73.06244 | 19853 ft | 345 kts | 186° |
| 2026-04-22 14:51 | 1.48820 | 73.05955 | 19855 ft | 345 kts | 186° |
| 2026-04-22 14:51 | 1.46410 | 73.05662 | 19853 ft | 346 kts | 187° |
| 2026-04-22 14:51 | 1.43990 | 73.05367 | 19855 ft | 346 kts | 187° |
| 2026-04-22 14:51 | 1.41589 | 73.05074 | 19858 ft | 347 kts | 187° |
| 2026-04-22 14:52 | 1.39194 | 73.04783 | 19856 ft | 347 kts | 187° |
| 2026-04-22 14:52 | 1.36766 | 73.04487 | 19854 ft | 346 kts | 186° |
| 2026-04-22 14:52 | 1.34374 | 73.04195 | 19853 ft | 346 kts | 187° |
| 2026-04-22 14:52 | 1.31971 | 73.03902 | 19853 ft | 347 kts | 187° |
| 2026-04-22 14:53 | 1.29584 | 73.03610 | 19850 ft | 347 kts | 186° |
| 2026-04-22 14:53 | 1.27182 | 73.03316 | 19848 ft | 346 kts | 187° |
| 2026-04-22 14:53 | 1.24758 | 73.03021 | 19847 ft | 346 kts | 187° |
| 2026-04-22 14:53 | 1.22363 | 73.02728 | 19845 ft | 346 kts | 187° |
| 2026-04-22 14:54 | 1.19976 | 73.02438 | 19843 ft | 346 kts | 186° |
| 2026-04-22 14:54 | 1.17550 | 73.02141 | 19844 ft | 346 kts | 187° |
| 2026-04-22 14:54 | 1.15157 | 73.01849 | 19842 ft | 346 kts | 186° |
| 2026-04-22 14:54 | 1.12763 | 73.01556 | 19841 ft | 346 kts | 186° |
| 2026-04-22 14:55 | 1.10337 | 73.01260 | 19842 ft | 347 kts | 187° |
| 2026-04-22 14:55 | 1.07933 | 73.00967 | 19843 ft | 347 kts | 187° |
| 2026-04-22 14:55 | 1.05527 | 73.00673 | 19843 ft | 347 kts | 187° |
| 2026-04-22 14:55 | 1.03113 | 73.00378 | 19842 ft | 347 kts | 187° |
| 2026-04-22 14:56 | 1.00702 | 73.00085 | 19845 ft | 348 kts | 187° |
| 2026-04-22 14:56 | 0.98269 | 72.99788 | 19845 ft | 348 kts | 187° |
| 2026-04-22 14:56 | 0.95837 | 72.99491 | 19844 ft | 348 kts | 187° |
| 2026-04-22 14:56 | 0.93437 | 72.99198 | 19842 ft | 348 kts | 186° |
| 2026-04-22 14:57 | 0.90999 | 72.98901 | 19842 ft | 348 kts | 186° |
| 2026-04-22 14:57 | 0.88593 | 72.98607 | 19842 ft | 348 kts | 186° |
| 2026-04-22 14:57 | 0.86187 | 72.98313 | 19843 ft | 348 kts | 186° |
| 2026-04-22 14:57 | 0.83779 | 72.98019 | 19844 ft | 348 kts | 186° |
| 2026-04-22 14:58 | 0.81331 | 72.97856 | 19846 ft | 348 kts | 179° |
| 2026-04-22 14:58 | 0.78917 | 72.97965 | 19849 ft | 347 kts | 176° |
| 2026-04-22 14:58 | 0.76509 | 72.98102 | 19856 ft | 347 kts | 176° |
| 2026-04-22 14:58 | 0.74053 | 72.98240 | 19862 ft | 347 kts | 176° |
| 2026-04-22 14:59 | 0.71645 | 72.98373 | 19865 ft | 347 kts | 176° |
| 2026-04-22 14:59 | 0.69223 | 72.98506 | 19865 ft | 347 kts | 176° |
| 2026-04-22 14:59 | 0.66776 | 72.98639 | 19864 ft | 347 kts | 176° |
| 2026-04-22 14:59 | 0.64367 | 72.98769 | 19863 ft | 347 kts | 176° |
| 2026-04-22 15:00 | 0.61944 | 72.98898 | 19861 ft | 347 kts | 176° |
| 2026-04-22 15:00 | 0.59487 | 72.99029 | 19863 ft | 347 kts | 176° |
| 2026-04-22 15:00 | 0.57068 | 72.99157 | 19862 ft | 347 kts | 176° |
| 2026-04-22 15:00 | 0.54664 | 72.99284 | 19863 ft | 347 kts | 176° |
| 2026-04-22 15:01 | 0.52223 | 72.99412 | 19864 ft | 347 kts | 176° |
| 2026-04-22 15:01 | 0.49808 | 72.99540 | 19865 ft | 347 kts | 176° |
| 2026-04-22 15:01 | 0.47380 | 72.99667 | 19865 ft | 347 kts | 176° |
| 2026-04-22 15:01 | 0.44930 | 72.99794 | 19865 ft | 347 kts | 176° |
| 2026-04-22 15:02 | 0.42503 | 72.99918 | 19864 ft | 347 kts | 176° |
| 2026-04-22 15:02 | 0.40082 | 73.00043 | 19862 ft | 347 kts | 176° |
| 2026-04-22 15:02 | 0.37673 | 73.00167 | 19861 ft | 347 kts | 176° |
| 2026-04-22 15:02 | 0.35251 | 73.00291 | 19861 ft | 347 kts | 176° |
| 2026-04-22 15:03 | 0.32801 | 73.00417 | 19863 ft | 346 kts | 176° |
| 2026-04-22 15:03 | 0.30404 | 73.00541 | 19865 ft | 346 kts | 176° |
| 2026-04-22 15:03 | 0.27956 | 73.00667 | 19864 ft | 346 kts | 176° |
| 2026-04-22 15:03 | 0.25552 | 73.00790 | 19848 ft | 346 kts | 176° |
| 2026-04-22 15:04 | 0.23125 | 73.00917 | 19527 ft | 343 kts | 176° |
| 2026-04-22 15:04 | 0.20749 | 73.01042 | 19126 ft | 343 kts | 176° |
| 2026-04-22 15:04 | 0.18355 | 73.01167 | 18696 ft | 344 kts | 176° |
| 2026-04-22 15:04 | 0.15952 | 73.01279 | 18255 ft | 344 kts | 176° |
| 2026-04-22 15:05 | 0.13552 | 73.01383 | 17811 ft | 345 kts | 176° |
| 2026-04-22 15:05 | 0.11163 | 73.01486 | 17365 ft | 342 kts | 176° |
| 2026-04-22 15:05 | 0.08777 | 73.01589 | 16922 ft | 342 kts | 176° |
| 2026-04-22 15:05 | 0.06371 | 73.01692 | 16474 ft | 342 kts | 176° |
| 2026-04-22 15:06 | 0.03991 | 73.01795 | 16032 ft | 341 kts | 176° |
| 2026-04-22 15:06 | 0.01635 | 73.01897 | 15595 ft | 340 kts | 176° |
| 2026-04-22 15:06 | -0.00757 | 73.02000 | 15149 ft | 339 kts | 176° |
| 2026-04-22 15:06 | -0.03135 | 73.02103 | 14706 ft | 338 kts | 176° |
| 2026-04-22 15:07 | -0.05459 | 73.02204 | 14271 ft | 334 kts | 176° |
| 2026-04-22 15:07 | -0.07766 | 73.02308 | 13835 ft | 321 kts | 176° |
| 2026-04-22 15:07 | -0.09977 | 73.02405 | 13431 ft | 318 kts | 176° |
| 2026-04-22 15:07 | -0.12191 | 73.02501 | 13022 ft | 316 kts | 177° |
| 2026-04-22 15:08 | -0.14389 | 73.02596 | 12614 ft | 314 kts | 177° |
| 2026-04-22 15:08 | -0.16586 | 73.02692 | 12203 ft | 313 kts | 176° |
| 2026-04-22 15:08 | -0.18783 | 73.02787 | 11795 ft | 311 kts | 176° |
| 2026-04-22 15:08 | -0.20922 | 73.02881 | 11399 ft | 309 kts | 176° |
| 2026-04-22 15:09 | -0.23079 | 73.02975 | 10997 ft | 308 kts | 176° |
| 2026-04-22 15:09 | -0.25229 | 73.03069 | 10598 ft | 307 kts | 176° |
| 2026-04-22 15:09 | -0.27362 | 73.03162 | 10200 ft | 305 kts | 177° |
| 2026-04-22 15:09 | -0.29476 | 73.03255 | 9806 ft | 302 kts | 176° |
| 2026-04-22 15:10 | -0.31594 | 73.03346 | 9414 ft | 301 kts | 177° |
| 2026-04-22 15:10 | -0.33704 | 73.03439 | 9022 ft | 298 kts | 176° |
| 2026-04-22 15:10 | -0.35758 | 73.03529 | 8640 ft | 296 kts | 177° |
| 2026-04-22 15:10 | -0.37823 | 73.03600 | 8249 ft | 293 kts | 180° |
| 2026-04-22 15:11 | -0.39838 | 73.03391 | 7873 ft | 282 kts | 189° |
| 2026-04-22 15:11 | -0.41751 | 73.03075 | 7507 ft | 272 kts | 189° |
| 2026-04-22 15:11 | -0.43569 | 73.02772 | 7165 ft | 262 kts | 189° |
| 2026-04-22 15:11 | -0.45355 | 73.02474 | 6829 ft | 253 kts | 189° |
| 2026-04-22 15:12 | -0.47085 | 73.02191 | 6503 ft | 244 kts | 189° |
| 2026-04-22 15:12 | -0.48741 | 73.01914 | 6190 ft | 236 kts | 189° |
| 2026-04-22 15:12 | -0.50327 | 73.01653 | 5890 ft | 227 kts | 189° |
| 2026-04-22 15:12 | -0.51862 | 73.01401 | 5601 ft | 217 kts | 189° |
| 2026-04-22 15:13 | -0.53319 | 73.01163 | 5322 ft | 207 kts | 189° |
| 2026-04-22 15:13 | -0.54714 | 73.00935 | 5058 ft | 195 kts | 189° |
| 2026-04-22 15:13 | -0.56025 | 73.00719 | 4910 ft | 189 kts | 189° |
| 2026-04-22 15:13 | -0.57356 | 73.00494 | 4713 ft | 194 kts | 190° |
| 2026-04-22 15:14 | -0.58710 | 73.00269 | 4485 ft | 197 kts | 189° |
| 2026-04-22 15:14 | -0.60035 | 73.00066 | 4234 ft | 185 kts | 189° |
| 2026-04-22 15:14 | -0.61264 | 72.99885 | 3998 ft | 171 kts | 189° |
| 2026-04-22 15:14 | -0.62418 | 72.99709 | 3789 ft | 164 kts | 189° |
| 2026-04-22 15:15 | -0.63536 | 72.99536 | 3587 ft | 159 kts | 190° |
| 2026-04-22 15:15 | -0.64632 | 72.99366 | 3397 ft | 156 kts | 191° |
| 2026-04-22 15:15 | -0.65698 | 72.99249 | 3171 ft | 155 kts | 176° |
| 2026-04-22 15:15 | -0.66568 | 72.99797 | 2894 ft | 149 kts | 117° |
| 2026-04-22 15:16 | -0.66861 | 73.00773 | 2695 ft | 147 kts | 103° |
| 2026-04-22 15:16 | -0.67072 | 73.01785 | 2494 ft | 149 kts | 102° |
| 2026-04-22 15:16 | -0.67270 | 73.02790 | 2280 ft | 144 kts | 101° |
| 2026-04-22 15:16 | -0.67448 | 73.03758 | 2076 ft | 139 kts | 101° |
| 2026-04-22 15:17 | -0.67612 | 73.04705 | 1882 ft | 140 kts | 100° |
| 2026-04-22 15:17 | -0.67776 | 73.05679 | 1708 ft | 142 kts | 100° |
| 2026-04-22 15:17 | -0.67942 | 73.06657 | 1557 ft | 145 kts | 100° |
| 2026-04-22 15:17 | -0.68105 | 73.07677 | 1355 ft | 150 kts | 99° |
| 2026-04-22 15:18 | -0.68261 | 73.08724 | 1120 ft | 153 kts | 99° |
| 2026-04-22 15:18 | -0.68413 | 73.09763 | 902 ft | 148 kts | 99° |
| 2026-04-22 15:18 | -0.68567 | 73.10775 | 654 ft | 145 kts | 100° |
| 2026-04-22 15:18 | -0.68721 | 73.11753 | 441 ft | 139 kts | 98° |
| 2026-04-22 15:19 | -0.68870 | 73.12704 | 261 ft | 139 kts | 100° |
| 2026-04-22 15:19 | -0.69020 | 73.13657 | 75 ft | 140 kts | 99° |
| 2026-04-22 15:19 | -0.69161 | 73.14542 | 14 ft | 98 kts | 99° |
| 2026-04-22 15:19 | -0.69232 | 73.15024 | 19 ft | 55 kts | 97° |
| 2026-04-22 15:20 | -0.69291 | 73.15379 | 17 ft | 48 kts | 99° |
| 2026-04-22 15:20 | -0.69285 | 73.15558 | 16 ft | 17 kts | 33° |
| 2026-04-22 15:20 | -0.69161 | 73.15584 | 16 ft | 14 kts | 354° |
| 2026-04-22 15:20 | -0.69093 | 73.15576 | 16 ft | 6 kts | 11° |
| 2026-04-22 15:21 | -0.69073 | 73.15580 | 16 ft | 0 kts | 9° |